createdAt,value
2023-05-14T00:03:50.004Z,11.23
2023-05-14T00:08:49.866Z,11.24
2023-05-14T00:13:49.362Z,11.27
2023-05-14T00:18:50.328Z,11.27
2023-05-14T00:23:46.784Z,11.22
2023-05-14T00:28:46.777Z,11.15
2023-05-14T00:33:46.054Z,11.11
2023-05-14T00:38:46.004Z,11.08
2023-05-14T00:44:01.697Z,11.05
2023-05-14T00:48:43.581Z,11
2023-05-14T00:53:43.522Z,10.96
2023-05-14T00:58:40.869Z,10.93
2023-05-14T01:03:40.904Z,10.96
2023-05-14T01:08:41.047Z,10.94
2023-05-14T01:13:42.413Z,10.95
2023-05-14T01:18:38.881Z,10.95
2023-05-14T01:23:38.710Z,10.94
2023-05-14T01:28:38.085Z,10.95
2023-05-14T01:33:37.845Z,10.98
2023-05-14T01:38:35.527Z,10.95
2023-05-14T01:43:35.153Z,10.94
2023-05-14T01:48:34.447Z,10.9
2023-05-14T01:53:34.193Z,10.85
2023-05-14T01:58:33.346Z,10.79
2023-05-14T02:15:03.020Z,10.64
2023-05-14T02:20:02.507Z,10.53
2023-05-14T02:25:02.466Z,10.52
2023-05-14T02:29:50.160Z,10.43
2023-05-14T02:34:49.701Z,10.33
2023-05-14T02:39:49.938Z,10.2
2023-05-14T02:44:49.561Z,10.12
2023-05-14T02:49:47.527Z,10.09
2023-05-14T02:54:47.544Z,10.07
2023-05-14T02:59:13.104Z,10.03
2023-05-14T03:04:13.018Z,10.04
2023-05-14T03:09:10.616Z,10.06
2023-05-14T03:14:10.489Z,10.08
2023-05-14T03:19:09.780Z,10.1
2023-05-14T03:24:09.350Z,10.13
2023-05-14T03:29:08.859Z,10.14
2023-05-14T03:34:08.623Z,10.17
2023-05-14T03:39:08.743Z,10.12
2023-05-14T03:44:08.089Z,10.05
2023-05-14T03:49:09.290Z,9.93
2023-05-14T03:54:05.681Z,9.81
2023-05-14T03:59:01.844Z,9.68
2023-05-14T04:04:01.918Z,9.57
2023-05-14T04:08:50.064Z,9.47
2023-05-14T04:13:49.682Z,9.38
2023-05-14T04:18:49.792Z,9.33
2023-05-14T04:23:49.400Z,9.28
2023-05-14T04:28:47.267Z,9.22
2023-05-14T04:33:47.044Z,9.22
2023-05-14T04:38:46.414Z,9.22
2023-05-14T04:43:46.025Z,9.22
2023-05-14T04:48:45.479Z,9.24
2023-05-14T04:53:45.054Z,9.27
2023-05-14T04:58:45.136Z,9.31
2023-05-14T05:03:44.657Z,9.34
2023-05-14T05:08:45.802Z,9.39
2023-05-14T05:13:42.250Z,9.47
2023-05-14T05:18:42.249Z,9.54
2023-05-14T05:23:41.604Z,9.6
2023-05-14T05:28:41.892Z,9.68
2023-05-14T05:33:39.230Z,9.77
2023-05-14T05:38:39.016Z,9.92
2023-05-14T05:43:39.419Z,10.06
2023-05-14T05:48:38.945Z,10.18
2023-05-14T05:53:38.340Z,10.33
2023-05-14T05:58:37.968Z,10.52
2023-05-14T06:03:37.950Z,10.67
2023-05-14T06:08:38.350Z,10.82
2023-05-14T06:13:35.908Z,10.98
2023-05-14T06:18:35.830Z,11.21
2023-05-14T06:23:35.055Z,11.49
2023-05-14T06:28:34.872Z,11.78
2023-05-14T06:33:34.314Z,12.01
2023-05-14T06:38:34.227Z,12.2
2023-05-14T06:43:34.336Z,12.39
2023-05-14T06:48:34.084Z,12.6
2023-05-14T06:53:35.313Z,12.7
2023-05-14T06:58:31.752Z,12.89
2023-05-14T07:00:18.088Z,12.92
2023-05-14T07:05:03.389Z,13.12
2023-05-14T07:10:02.267Z,13.55
2023-05-14T07:15:02.559Z,13.88
2023-05-14T07:20:02.678Z,14.25
2023-05-14T07:25:04.608Z,14.7
2023-05-14T07:30:02.162Z,15.11
2023-05-14T07:35:02.191Z,15.12
2023-05-14T07:40:03.963Z,15.35
2023-05-14T07:45:01.951Z,15.67
2023-05-14T07:50:02.267Z,15.86
2023-05-14T07:55:02.929Z,16.07
2023-05-14T07:59:11.181Z,16.29
2023-05-14T08:04:11.424Z,16.9
2023-05-14T08:09:11.076Z,17.14
2023-05-14T08:14:12.207Z,17.07
2023-05-14T08:19:08.679Z,17.03
2023-05-14T08:24:08.519Z,17.19
2023-05-14T08:29:09.343Z,17.39
2023-05-14T08:34:07.907Z,17.62
2023-05-14T08:39:05.483Z,17.74
2023-05-14T08:44:05.410Z,17.73
2023-05-14T08:49:04.778Z,17.95
2023-05-14T08:54:04.567Z,18.12
2023-05-14T08:59:02.221Z,17.75
2023-05-14T09:04:02.248Z,17.74
2023-05-14T09:09:02.102Z,18.18
2023-05-14T09:14:02.782Z,18.26
2023-05-14T09:18:49.778Z,18.28
2023-05-14T09:23:49.385Z,18.28
2023-05-14T09:28:49.221Z,18.14
2023-05-14T09:33:46.772Z,18.04
2023-05-14T09:38:46.298Z,18.04
2023-05-14T09:43:46.079Z,18.36
2023-05-14T09:48:45.947Z,18.54
2023-05-14T09:53:44.822Z,18.32
2023-05-14T09:58:44.379Z,18.61
2023-05-14T10:03:44.503Z,19.25
2023-05-14T10:08:44.167Z,19.79
2023-05-14T10:13:45.590Z,20.43
2023-05-14T10:18:42.033Z,19.93
2023-05-14T10:23:41.919Z,19.39
2023-05-14T10:28:40.787Z,18.89
2023-05-14T10:33:40.443Z,18.36
2023-05-14T10:38:37.580Z,17.79
2023-05-14T10:43:37.110Z,17.62
2023-05-14T10:48:36.242Z,17.5
2023-05-14T10:53:35.828Z,17.59
2023-05-14T10:58:35.613Z,17.57
2023-05-14T11:00:21.957Z,17.61
2023-05-14T11:05:06.313Z,17.65
2023-05-14T11:10:05.049Z,18.11
2023-05-14T11:15:05.731Z,18.85
2023-05-14T11:20:05.784Z,18.95
2023-05-14T11:25:07.461Z,18.86
2023-05-14T11:30:04.901Z,19.58
2023-05-14T11:35:04.743Z,19.48
2023-05-14T11:40:06.055Z,19.2
2023-05-14T11:45:02.877Z,18.82
2023-05-14T11:50:02.474Z,18.78
2023-05-14T11:55:02.313Z,18.92
2023-05-14T11:58:57.216Z,18.79
2023-05-14T12:03:56.982Z,18.95
2023-05-14T12:09:06.708Z,19.1
2023-05-14T12:14:08.122Z,18.89
2023-05-14T12:19:05.731Z,18.87
2023-05-14T12:24:05.091Z,18.54
2023-05-14T12:29:05.142Z,18.46
2023-05-14T12:34:02.787Z,18.76
2023-05-14T12:39:02.777Z,19
2023-05-14T12:44:04.234Z,19.09
2023-05-14T12:49:01.240Z,19.16
2023-05-14T12:54:00.731Z,19.28
2023-05-14T12:59:00.954Z,19.48
2023-05-14T13:03:48.812Z,19.2
2023-05-14T13:08:48.129Z,18.74
2023-05-14T13:13:47.373Z,18.4
2023-05-14T13:18:46.836Z,18.25
2023-05-14T13:23:46.021Z,18.29
2023-05-14T13:28:45.646Z,18.29
2023-05-14T13:33:45.904Z,18.35
2023-05-14T13:38:45.155Z,18.15
2023-05-14T13:43:46.209Z,18.27
2023-05-14T13:48:42.831Z,18.92
2023-05-14T13:53:42.819Z,19.11
2023-05-14T13:58:42.223Z,18.94
2023-05-14T14:03:41.867Z,19.12
2023-05-14T14:08:40.826Z,19.37
2023-05-14T14:13:40.329Z,18.85
2023-05-14T14:18:40.176Z,18.44
2023-05-14T14:23:37.774Z,18.2
2023-05-14T14:28:37.307Z,17.99
2023-05-14T14:33:37.453Z,17.95
2023-05-14T14:38:36.963Z,18.58
2023-05-14T14:43:36.498Z,19.45
2023-05-14T14:48:36.474Z,19.81
2023-05-14T14:53:36.603Z,19.39
2023-05-14T14:58:36.100Z,19.25
2023-05-14T15:00:24.410Z,19.29
2023-05-14T15:15:06.182Z,19.62
2023-05-14T15:20:04.266Z,19.66
2023-05-14T15:25:04.667Z,19.19
2023-05-14T15:30:04.529Z,18.81
2023-05-14T15:35:03.058Z,18.51
2023-05-14T15:40:03.166Z,18.33
2023-05-14T15:45:02.828Z,18.09
2023-05-14T15:50:01.121Z,17.93
2023-05-14T15:55:01.445Z,18.07
2023-05-14T15:59:12.326Z,18.45
2023-05-14T16:04:13.364Z,18.39
2023-05-14T16:09:09.814Z,18.11
2023-05-14T16:14:09.529Z,17.86
2023-05-14T16:19:08.781Z,17.7
2023-05-14T16:24:08.500Z,17.54
2023-05-14T16:29:06.109Z,17.54
2023-05-14T16:34:05.870Z,18.36
2023-05-14T16:39:07.996Z,18.93
2023-05-14T16:44:05.728Z,19.16
2023-05-14T16:49:05.350Z,18.93
2023-05-14T16:54:04.628Z,18.41
2023-05-14T16:59:01.131Z,18.02
2023-05-14T17:04:01.100Z,17.7
2023-05-14T17:08:48.587Z,17.51
2023-05-14T17:13:48.281Z,17.59
2023-05-14T17:18:47.756Z,18.09
2023-05-14T17:23:47.398Z,18.56
2023-05-14T17:28:45.474Z,18.62
2023-05-14T17:33:45.321Z,18.66
2023-05-14T17:38:44.668Z,18.45
2023-05-14T17:43:44.425Z,18.25
2023-05-14T17:48:41.839Z,18.06
2023-05-14T17:53:41.714Z,17.87
2023-05-14T17:58:40.881Z,17.77
2023-05-14T18:05:02.140Z,17.59
2023-05-14T18:10:02.009Z,17.41
2023-05-14T18:15:01.598Z,17.21
2023-05-14T18:20:00.992Z,17.08
2023-05-14T18:25:02.029Z,17.1
2023-05-14T18:29:58.382Z,17.01
2023-05-14T18:34:58.174Z,16.87
2023-05-14T18:39:57.620Z,16.57
2023-05-14T18:44:57.343Z,16.31
2023-05-14T18:50:05.225Z,16.12
2023-05-14T18:59:08.760Z,15.93
2023-05-14T19:04:08.020Z,15.85
2023-05-14T19:09:07.313Z,15.74
2023-05-14T19:14:06.452Z,15.52
2023-05-14T19:19:05.822Z,15.32
2023-05-14T19:24:05.814Z,15.13
2023-05-14T19:29:05.076Z,14.89
2023-05-14T19:34:05.972Z,14.68
2023-05-14T19:39:02.387Z,14.45
2023-05-14T19:44:02.185Z,14.18
2023-05-14T19:49:01.556Z,13.95
2023-05-14T19:54:01.360Z,13.7
2023-05-14T19:59:04.076Z,13.44
2023-05-14T20:04:03.482Z,13.27
2023-05-14T20:09:03.652Z,13.09
2023-05-14T20:14:02.476Z,12.92
2023-05-14T20:19:02.667Z,12.83
2023-05-14T20:24:02.520Z,12.73
2023-05-14T20:29:03.875Z,12.57
2023-05-14T20:34:00.955Z,12.5
2023-05-14T20:39:00.643Z,12.44
2023-05-14T20:43:49.475Z,12.39
2023-05-14T20:48:49.220Z,12.37
2023-05-14T20:53:48.965Z,12.28
2023-05-14T20:58:48.865Z,12.17
2023-05-14T21:03:49.983Z,12.06
2023-05-14T21:08:46.006Z,11.96
2023-05-14T21:13:45.832Z,11.89
2023-05-14T21:18:45.161Z,11.85
2023-05-14T21:23:45.005Z,11.81
2023-05-14T21:28:42.578Z,11.85
2023-05-14T21:33:42.806Z,11.88
2023-05-14T21:38:41.619Z,11.88
2023-05-14T21:43:41.341Z,11.89
2023-05-14T21:48:40.804Z,11.87
2023-05-14T21:53:40.425Z,11.86
2023-05-14T21:58:40.462Z,11.83
2023-05-14T22:03:39.799Z,11.82
2023-05-14T22:08:40.793Z,11.81
2023-05-14T22:13:37.150Z,11.82
2023-05-14T22:18:37.096Z,11.8
2023-05-14T22:23:37.063Z,11.78
2023-05-14T22:28:36.352Z,11.8
2023-05-14T22:33:36.209Z,11.79
2023-05-14T22:38:36.215Z,11.73
2023-05-14T22:43:35.820Z,11.64
2023-05-14T22:48:36.814Z,11.51
2023-05-14T22:53:33.367Z,11.4
2023-05-14T22:58:33.167Z,11.29
2023-05-14T23:00:19.833Z,11.27
2023-05-14T23:10:03.057Z,11.21
2023-05-14T23:20:04.418Z,11.06
2023-05-14T23:25:01.259Z,10.98
2023-05-14T23:30:00.719Z,10.85
2023-05-14T23:35:00.845Z,10.83
2023-05-14T23:39:48.604Z,10.71
2023-05-14T23:44:48.295Z,10.66
2023-05-14T23:49:48.505Z,10.62
2023-05-14T23:54:48.136Z,10.58
2023-05-14T23:59:15.362Z,10.51
